Time;durP1;ratioP1;P1;durP2;ratioP2;P2;SDS_P1;SDS_P2;PMS_P1;PMS_P2;Temp;Humidity;BMP_temperature;BMP_pressure;BME280_temperature;BME280_humidity;BME280_pressure;Samples;Min_cycle;Max_cycle;Signal;HPM_P1;HPM_P2
2022/02/07 00:00:22;;;;;;;2.03;1.50;;;11.40;59.30;;;;;;5099448;28;20054;-63
2022/02/07 00:05:16;;;;;;;0.82;0.60;;;11.40;59.10;;;;;;5110228;28;20055;-63
2022/02/07 00:07:42;;;;;;;0.80;0.70;;;11.40;59.00;;;;;;5116548;27;20522;-63
2022/02/07 00:10:08;;;;;;;1.08;0.60;;;11.50;58.90;;;;;;5112143;28;20122;-62
2022/02/07 00:12:34;;;;;;;0.70;0.60;;;11.40;59.30;;;;;;5119581;27;20068;-63
2022/02/07 00:14:59;;;;;;;0.60;0.60;;;11.40;59.40;;;;;;5102878;28;20408;-63
2022/02/07 00:17:25;;;;;;;0.80;0.50;;;11.40;59.90;;;;;;5105026;28;20430;-61
2022/02/07 00:19:51;;;;;;;0.90;0.60;;;11.30;59.90;;;;;;5109881;28;20035;-61
2022/02/07 00:22:17;;;;;;;0.85;0.70;;;11.30;59.80;;;;;;5102798;28;20031;-64
2022/02/07 00:24:42;;;;;;;2.28;0.70;;;11.30;59.80;;;;;;5117790;27;20457;-62
2022/02/07 00:27:08;;;;;;;0.85;0.77;;;11.30;60.00;;;;;;5113449;27;20319;-62
2022/02/07 00:29:34;;;;;;;0.75;0.60;;;11.30;60.00;;;;;;5122267;27;20382;-62
2022/02/07 00:31:59;;;;;;;1.15;0.77;;;11.30;60.30;;;;;;5110277;28;20474;-63
2022/02/07 00:34:25;;;;;;;1.73;0.55;;;11.20;60.30;;;;;;5111384;28;20063;-63
2022/02/07 00:36:51;;;;;;;0.98;0.70;;;11.20;60.70;;;;;;5110442;28;20024;-61
2022/02/07 00:39:26;;;;;;;1.17;0.60;;;11.20;60.70;;;;;;5111104;28;20028;-62
2022/02/07 00:41:59;;;;;;;0.73;0.65;;;11.20;60.90;;;;;;5110695;28;20134;-61
2022/02/07 00:44:25;;;;;;;2.42;0.60;;;11.10;61.10;;;;;;5112404;28;20024;-63
2022/02/07 00:46:57;;;;;;;1.98;0.70;;;11.10;61.20;;;;;;5110207;28;20488;-61
2022/02/07 00:49:25;;;;;;;2.33;0.80;;;11.20;61.20;;;;;;5111141;28;20441;-64
2022/02/07 00:51:51;;;;;;;0.60;0.60;;;11.10;61.50;;;;;;5111168;28;20036;-62
2022/02/07 00:54:17;;;;;;;0.85;0.57;;;11.10;61.40;;;;;;5111872;28;20023;-64
2022/02/07 00:57:01;;;;;;;0.90;0.70;;;11.10;61.60;;;;;;5112134;28;20012;-62
2022/02/07 00:59:27;;;;;;;1.23;0.90;;;11.10;61.80;;;;;;5110472;28;20036;-61
2022/02/07 01:01:53;;;;;;;1.80;0.88;;;11.10;61.70;;;;;;5111589;28;20466;-60
2022/02/07 01:04:19;;;;;;;1.02;0.80;;;11.10;61.80;;;;;;5110652;28;20067;-62
2022/02/07 01:06:45;;;;;;;1.35;0.80;;;11.10;62.00;;;;;;5111900;28;20020;-62
2022/02/07 01:09:18;;;;;;;1.30;0.73;;;11.10;61.90;;;;;;5111324;28;20218;-62
2022/02/07 01:12:00;;;;;;;1.85;0.80;;;11.10;62.10;;;;;;5110618;28;20040;-62
2022/02/07 01:57:55;;;;;;;1.92;0.70;;;11.10;63.70;;;;;;5106081;28;20035;-63
2022/02/07 02:00:21;;;;;;;1.27;0.65;;;11.10;63.60;;;;;;5101282;28;20016;-62
2022/02/07 02:02:47;;;;;;;1.13;0.70;;;11.10;64.00;;;;;;5102851;28;20031;-62
2022/02/07 02:05:13;;;;;;;1.05;0.70;;;11.00;63.90;;;;;;5110630;28;20027;-62
2022/02/07 02:07:40;;;;;;;0.65;0.60;;;11.00;63.90;;;;;;5109739;28;20138;-62
2022/02/07 02:10:07;;;;;;;0.65;0.63;;;11.00;63.90;;;;;;5107020;28;20047;-64
2022/02/07 02:12:39;;;;;;;0.57;0.55;;;11.00;63.80;;;;;;5107180;28;20462;-62
2022/02/07 02:15:26;;;;;;;0.75;0.57;;;11.00;63.80;;;;;;5094125;28;20558;-62
2022/02/07 02:18:29;;;;;;;0.80;0.60;;;11.00;63.80;;;;;;5104246;28;20096;-63
2022/02/07 02:36:44;;;;;;;1.92;0.60;;;10.90;66.00;;;;;;5100304;28;20030;-62
2022/02/07 02:46:54;;;;;;;0.50;0.50;;;11.00;65.50;;;;;;5109557;28;20024;-62
2022/02/07 02:49:20;;;;;;;0.50;0.50;;;10.90;66.00;;;;;;5112930;28;20064;-64
2022/02/07 02:51:46;;;;;;;0.77;0.50;;;10.80;65.90;;;;;;5106067;28;20089;-63
2022/02/07 02:54:11;;;;;;;0.47;0.47;;;10.70;65.90;;;;;;5106263;28;20026;-62
2022/02/07 02:56:37;;;;;;;0.70;0.52;;;10.70;65.90;;;;;;5114470;28;20542;-63
2022/02/07 02:59:04;;;;;;;1.90;0.52;;;10.70;66.10;;;;;;5113037;28;20419;-63
2022/02/07 03:01:30;;;;;;;0.75;0.40;;;10.60;66.20;;;;;;5098886;28;20036;-62
2022/02/07 03:03:55;;;;;;;0.40;0.40;;;10.50;66.50;;;;;;5100290;28;20157;-62
2022/02/07 03:06:21;;;;;;;0.50;0.50;;;10.50;66.60;;;;;;5106940;28;20485;-61
2022/02/07 03:08:48;;;;;;;0.75;0.50;;;10.40;66.50;;;;;;5101258;28;20461;-62
2022/02/07 03:11:17;;;;;;;0.50;0.50;;;10.40;66.50;;;;;;5111953;28;20370;-62
2022/02/07 03:16:38;;;;;;;0.93;0.60;;;10.20;68.00;;;;;;5104278;28;20028;-63
2022/02/07 03:19:10;;;;;;;0.65;0.60;;;10.20;68.50;;;;;;5113466;28;20023;-62
2022/02/07 03:21:37;;;;;;;0.50;0.50;;;10.10;68.40;;;;;;5111862;28;20048;-61
2022/02/07 03:24:03;;;;;;;0.77;0.60;;;10.00;68.20;;;;;;5102449;28;20035;-61
2022/02/07 03:26:35;;;;;;;0.47;0.47;;;9.90;68.40;;;;;;5105950;28;20038;-62
2022/02/07 03:29:02;;;;;;;0.70;0.70;;;9.90;68.00;;;;;;5103013;28;20027;-63
2022/02/07 03:31:27;;;;;;;0.43;0.40;;;9.80;68.00;;;;;;5109535;28;20024;-62
2022/02/07 03:33:53;;;;;;;0.65;0.60;;;9.80;67.80;;;;;;5102568;28;20363;-62
2022/02/07 03:36:19;;;;;;;0.60;0.60;;;9.80;67.70;;;;;;5092962;28;20110;-63
2022/02/07 03:38:46;;;;;;;1.40;0.60;;;9.90;67.80;;;;;;5121204;27;20490;-62
2022/02/07 03:41:12;;;;;;;0.80;0.68;;;9.90;67.50;;;;;;5114298;27;20050;-64
2022/02/07 03:43:38;;;;;;;0.40;0.40;;;9.80;67.50;;;;;;5112146;28;20035;-64
2022/02/07 03:46:04;;;;;;;1.55;0.60;;;9.80;67.50;;;;;;5115591;27;20045;-62
2022/02/07 03:48:31;;;;;;;0.70;0.60;;;9.70;68.10;;;;;;5113128;28;20565;-64
2022/02/07 03:50:56;;;;;;;0.80;0.60;;;9.70;69.40;;;;;;5112638;28;20032;-63
2022/02/07 03:53:23;;;;;;;0.57;0.57;;;9.60;69.50;;;;;;5106149;28;20496;-63
2022/02/07 03:55:49;;;;;;;0.52;0.50;;;9.50;69.60;;;;;;5114282;27;20028;-63
2022/02/07 03:58:20;;;;;;;0.95;0.60;;;9.60;69.70;;;;;;5104171;28;20206;-62
2022/02/07 04:00:47;;;;;;;0.82;0.70;;;9.50;69.50;;;;;;5117210;27;20027;-63
2022/02/07 04:03:14;;;;;;;1.27;0.70;;;9.50;70.00;;;;;;5114389;27;20024;-63
2022/02/07 04:05:53;;;;;;;0.90;0.70;;;9.40;69.70;;;;;;5113824;27;20024;-62
2022/02/07 04:08:21;;;;;;;0.68;0.68;;;9.40;70.10;;;;;;5104388;28;20092;-63
2022/02/07 04:11:00;;;;;;;1.60;0.60;;;9.30;71.20;;;;;;5108521;27;20082;-63
2022/02/07 04:13:31;;;;;;;1.42;0.60;;;9.20;71.40;;;;;;5093319;28;20032;-63
2022/02/07 04:15:59;;;;;;;0.60;0.60;;;9.10;71.30;;;;;;5104850;28;20038;-64
2022/02/07 04:18:32;;;;;;;0.70;0.60;;;9.10;71.80;;;;;;5112709;27;20189;-63
2022/02/07 04:20:58;;;;;;;2.03;0.70;;;9.10;71.90;;;;;;5112637;28;20043;-63
2022/02/07 04:23:24;;;;;;;0.50;0.50;;;9.10;71.50;;;;;;5110090;28;20092;-62
2022/02/07 04:25:50;;;;;;;0.50;0.50;;;9.10;71.40;;;;;;5104425;28;20023;-64
2022/02/07 04:28:17;;;;;;;0.90;0.60;;;9.10;71.00;;;;;;5092527;28;20100;-62
2022/02/07 04:30:43;;;;;;;0.70;0.55;;;9.10;71.10;;;;;;5102786;28;20016;-63
2022/02/07 04:33:09;;;;;;;1.55;0.70;;;9.10;71.10;;;;;;5112481;27;20038;-61
2022/02/07 04:35:34;;;;;;;0.73;0.57;;;9.10;71.10;;;;;;5111820;28;20016;-63
2022/02/07 04:38:00;;;;;;;0.73;0.50;;;9.10;70.90;;;;;;5102517;28;20485;-64
2022/02/07 04:40:26;;;;;;;0.60;0.60;;;9.10;70.70;;;;;;5114925;27;20019;-64
2022/02/07 04:42:52;;;;;;;0.70;0.55;;;9.10;71.30;;;;;;5100618;28;20118;-65
2022/02/07 04:48:40;;;;;;;1.50;0.80;;;9.10;70.30;;;;;;5112318;28;20096;-63
2022/02/07 04:58:56;;;;;;;0.65;0.60;;;8.90;69.70;;;;;;5115928;27;20027;-63
2022/02/07 05:03:54;;;;;;;1.10;0.60;;;8.80;69.30;;;;;;5115391;27;20114;-63
2022/02/07 05:14:34;;;;;;;0.70;0.70;;;8.60;69.10;;;;;;5115287;27;20040;-64
2022/02/07 05:17:00;;;;;;;1.00;0.70;;;8.60;68.70;;;;;;5100448;28;20074;-64
2022/02/07 05:19:26;;;;;;;1.05;0.80;;;8.50;68.80;;;;;;5090902;28;20028;-64
2022/02/07 05:21:52;;;;;;;1.33;0.70;;;8.50;68.50;;;;;;5129628;27;20056;-63
2022/02/07 05:24:18;;;;;;;0.68;0.57;;;8.40;68.60;;;;;;5103323;28;20024;-62
2022/02/07 05:26:44;;;;;;;0.73;0.70;;;8.40;68.70;;;;;;5105138;28;20043;-63
2022/02/07 05:29:09;;;;;;;0.50;0.50;;;8.40;68.70;;;;;;5111831;28;20020;-64
2022/02/07 05:31:35;;;;;;;0.85;0.60;;;8.40;68.70;;;;;;5110587;28;20039;-63
2022/02/07 05:34:02;;;;;;;2.30;0.70;;;8.40;68.80;;;;;;5103461;28;20023;-64
2022/02/07 05:36:28;;;;;;;1.45;0.70;;;8.20;69.90;;;;;;5119332;28;20145;-63
2022/02/07 05:38:58;;;;;;;1.15;0.65;;;8.10;71.50;;;;;;5105884;28;20474;-64
2022/02/07 05:41:24;;;;;;;1.13;0.60;;;8.00;74.60;;;;;;5107821;28;20477;-62
2022/02/07 05:43:51;;;;;;;2.30;1.27;;;7.80;77.00;;;;;;5108501;28;20028;-63
2022/02/07 05:46:19;;;;;;;0.93;0.50;;;7.60;77.80;;;;;;5102960;28;20020;-63
2022/02/07 05:48:44;;;;;;;1.27;0.77;;;7.50;76.20;;;;;;5112581;28;20024;-64
2022/02/07 05:51:11;;;;;;;1.83;0.63;;;7.40;77.10;;;;;;5111105;28;20059;-64
2022/02/07 05:53:37;;;;;;;0.90;0.70;;;7.50;76.20;;;;;;5112581;28;20057;-64
2022/02/07 05:56:03;;;;;;;0.90;0.60;;;7.60;75.50;;;;;;5109393;28;20019;-64
2022/02/07 05:58:29;;;;;;;0.52;0.47;;;7.60;74.90;;;;;;5110808;28;20031;-64
2022/02/07 06:00:55;;;;;;;1.10;0.70;;;7.60;74.20;;;;;;5110965;28;20474;-63
2022/02/07 06:03:22;;;;;;;1.90;0.52;;;7.60;74.00;;;;;;5110123;28;20019;-62
2022/02/07 06:05:49;;;;;;;1.25;0.60;;;7.50;75.50;;;;;;5110789;28;20031;-63
2022/02/07 06:08:16;;;;;;;2.67;0.80;;;7.40;76.70;;;;;;5110462;28;20036;-61
2022/02/07 06:10:43;;;;;;;2.00;0.85;;;7.20;78.20;;;;;;5112197;28;20053;-62
2022/02/07 06:13:16;;;;;;;3.15;0.70;;;7.00;81.00;;;;;;5114530;28;20035;-63
2022/02/07 06:15:42;;;;;;;2.72;0.80;;;6.60;81.20;;;;;;5110696;28;20028;-63
2022/02/07 06:18:08;;;;;;;1.45;0.60;;;6.00;83.30;;;;;;5112300;28;20024;-63
2022/02/07 06:20:34;;;;;;;0.63;0.47;;;5.70;85.30;;;;;;5102569;28;20396;-62
2022/02/07 06:22:59;;;;;;;1.50;0.60;;;5.50;86.20;;;;;;5114808;28;20051;-63
2022/02/07 06:25:25;;;;;;;2.42;0.65;;;5.50;89.10;;;;;;5111185;28;20050;-62
2022/02/07 06:27:52;;;;;;;2.08;0.60;;;5.50;90.00;;;;;;5116273;27;20034;-64
2022/02/07 06:30:18;;;;;;;1.58;0.70;;;5.40;90.00;;;;;;5112777;28;20342;-62
2022/02/07 06:32:43;;;;;;;1.33;0.50;;;5.40;91.10;;;;;;5111665;28;20047;-63
2022/02/07 06:35:09;;;;;;;1.83;0.70;;;5.50;91.10;;;;;;5108101;28;20102;-62
2022/02/07 06:37:36;;;;;;;1.23;0.60;;;5.60;90.60;;;;;;5102384;28;20214;-64
2022/02/07 06:40:03;;;;;;;1.73;0.80;;;5.60;90.80;;;;;;5110547;27;20027;-62
2022/02/07 06:42:29;;;;;;;1.02;0.73;;;5.70;91.20;;;;;;5106295;28;20036;-61
2022/02/07 06:44:54;;;;;;;2.08;1.00;;;5.70;90.60;;;;;;5112148;27;20737;-63
2022/02/07 06:47:20;;;;;;;2.00;1.02;;;5.80;91.10;;;;;;5108469;28;20016;-62
2022/02/07 06:49:46;;;;;;;3.55;1.40;;;5.90;91.20;;;;;;5111651;27;20050;-63
2022/02/07 06:52:12;;;;;;;2.03;1.10;;;6.00;91.00;;;;;;5107413;28;20032;-62
2022/02/07 06:54:38;;;;;;;3.38;0.98;;;6.10;91.10;;;;;;5116362;27;20032;-62
2022/02/07 06:57:04;;;;;;;1.30;0.80;;;6.10;90.70;;;;;;5101383;28;20099;-63
2022/02/07 06:59:34;;;;;;;7.40;1.65;;;6.00;90.30;;;;;;5113797;27;20464;-63
2022/02/07 07:02:00;;;;;;;2.72;0.60;;;6.00;90.60;;;;;;5110902;28;20035;-63
2022/02/07 07:04:28;;;;;;;10.65;1.17;;;6.00;90.00;;;;;;5118523;27;20069;-65
2022/02/07 07:06:54;;;;;;;1.80;0.65;;;6.00;90.80;;;;;;5111883;28;20031;-63
2022/02/07 07:09:20;;;;;;;1.63;0.80;;;6.10;89.40;;;;;;5102923;28;20039;-62
2022/02/07 07:11:46;;;;;;;4.78;0.93;;;6.20;88.30;;;;;;5120684;27;20032;-63
2022/02/07 07:14:19;;;;;;;6.70;1.38;;;6.20;87.10;;;;;;5100976;28;20482;-64
2022/02/07 07:16:51;;;;;;;5.88;1.52;;;6.10;85.50;;;;;;5111184;27;20030;-62
2022/02/07 07:19:19;;;;;;;2.90;0.73;;;6.20;85.10;;;;;;5111047;27;20118;-64
2022/02/07 07:21:45;;;;;;;4.07;1.00;;;6.30;84.30;;;;;;5109862;28;20079;-63
2022/02/07 07:24:11;;;;;;;5.35;1.10;;;6.40;81.20;;;;;;5108314;28;20032;-63
2022/02/07 07:26:37;;;;;;;2.50;0.82;;;6.40;80.70;;;;;;5092495;28;20483;-63
2022/02/07 07:29:14;;;;;;;4.28;1.45;;;6.50;82.10;;;;;;5100469;28;20229;-63
2022/02/07 07:31:45;;;;;;;3.95;1.20;;;6.60;80.10;;;;;;5114371;27;20133;-63
2022/02/07 07:34:15;;;;;;;3.30;1.30;;;6.70;81.50;;;;;;5113696;28;20031;-63
2022/02/07 07:36:42;;;;;;;3.95;1.10;;;6.90;81.50;;;;;;5112406;28;20038;-63
2022/02/07 07:39:07;;;;;;;2.13;1.00;;;6.90;77.90;;;;;;5113603;28;20111;-63
2022/02/07 07:41:33;;;;;;;3.63;1.20;;;7.00;76.70;;;;;;5110994;28;20096;-64
2022/02/07 07:43:59;;;;;;;4.32;1.30;;;6.90;76.30;;;;;;5111879;28;20119;-65
2022/02/07 07:46:29;;;;;;;5.82;1.30;;;6.90;76.10;;;;;;5108657;28;20030;-63
2022/02/07 07:49:03;;;;;;;5.85;1.30;;;7.20;75.20;;;;;;5109437;28;20442;-63
2022/02/07 08:02:17;;;;;;;5.25;3.70;;;15.80;55.90;;;;;;5112319;28;20045;-64
2022/02/07 08:04:45;;;;;;;6.05;4.22;;;16.80;45.30;;;;;;5111353;28;20046;-64
2022/02/07 08:07:24;;;;;;;4.97;4.45;;;16.70;47.10;;;;;;5103652;28;20143;-63
2022/02/07 08:15:15;;;;;;;5.50;2.83;;;16.70;39.90;;;;;;5113114;28;20112;-64
2022/02/07 08:17:41;;;;;;;3.08;1.50;;;14.80;42.80;;;;;;5105148;28;20371;-63
2022/02/07 08:20:07;;;;;;;4.88;1.40;;;13.70;45.80;;;;;;5097355;28;20038;-64
2022/02/07 08:22:33;;;;;;;4.72;1.25;;;13.00;46.40;;;;;;5105674;28;20103;-64
2022/02/07 08:25:00;;;;;;;9.00;1.50;;;12.20;47.40;;;;;;5111419;28;20153;-63
2022/02/07 08:27:27;;;;;;;3.22;1.10;;;11.90;47.40;;;;;;5109542;28;20026;-62
2022/02/07 08:29:54;;;;;;;3.30;1.42;;;11.50;49.10;;;;;;5102540;28;20043;-63
2022/02/07 08:32:21;;;;;;;6.53;1.80;;;11.00;49.10;;;;;;5108719;28;20488;-63
2022/02/07 08:34:47;;;;;;;4.60;1.50;;;10.80;51.20;;;;;;5098971;28;20020;-64
2022/02/07 08:37:13;;;;;;;8.38;1.75;;;10.80;51.00;;;;;;5100110;28;20042;-62
2022/02/07 08:39:39;;;;;;;5.38;1.55;;;10.70;50.30;;;;;;5093341;28;20403;-63
2022/02/07 08:42:05;;;;;;;3.72;1.67;;;10.50;51.60;;;;;;5099557;28;20109;-64
2022/02/07 08:44:31;;;;;;;8.40;1.75;;;10.30;51.40;;;;;;5103380;28;20117;-62
2022/02/07 08:46:57;;;;;;;5.20;1.30;;;10.20;51.60;;;;;;5100278;28;20027;-63
2022/02/07 08:49:24;;;;;;;8.35;1.85;;;10.20;52.00;;;;;;5106542;28;20380;-65
2022/02/07 08:51:50;;;;;;;4.20;1.40;;;10.20;51.60;;;;;;5108372;28;20039;-64
2022/02/07 08:54:22;;;;;;;5.35;1.23;;;10.00;51.90;;;;;;5105868;28;20027;-64
2022/02/07 08:56:50;;;;;;;5.88;2.70;;;9.70;52.10;;;;;;5101725;28;20031;-64
2022/02/07 08:59:16;;;;;;;6.03;1.85;;;9.40;51.60;;;;;;5097828;28;20055;-63
2022/02/07 09:01:52;;;;;;;4.45;1.50;;;9.30;52.40;;;;;;5095165;28;20103;-63
2022/02/07 09:07:15;;;;;;;4.93;1.33;;;9.00;52.80;;;;;;5104381;28;20034;-64
2022/02/07 09:09:44;;;;;;;8.60;1.50;;;8.90;52.60;;;;;;5098312;28;20024;-63
2022/02/07 09:12:10;;;;;;;3.80;1.05;;;8.70;50.70;;;;;;5111478;28;20042;-64
2022/02/07 09:14:43;;;;;;;9.40;1.55;;;8.60;50.80;;;;;;5106372;28;20092;-63
2022/02/07 09:17:09;;;;;;;5.40;1.60;;;8.50;51.10;;;;;;5100569;28;20488;-64
2022/02/07 09:19:36;;;;;;;9.88;1.38;;;8.80;51.10;;;;;;5099238;28;20053;-64
2022/02/07 09:22:04;;;;;;;4.43;1.40;;;8.80;50.00;;;;;;5105485;28;20047;-64
2022/02/07 09:24:30;;;;;;;6.30;1.83;;;8.90;50.30;;;;;;5106968;28;20118;-63
2022/02/07 09:26:57;;;;;;;3.20;1.25;;;8.80;50.50;;;;;;5098850;28;20035;-64
2022/02/07 09:29:23;;;;;;;12.85;1.77;;;8.80;50.20;;;;;;5104918;28;20016;-65
2022/02/07 09:31:49;;;;;;;3.40;1.40;;;8.80;50.70;;;;;;5098081;28;20036;-63
2022/02/07 09:34:15;;;;;;;5.47;1.50;;;8.90;50.80;;;;;;5108392;28;20504;-64
2022/02/07 09:36:41;;;;;;;10.68;1.38;;;8.70;50.20;;;;;;5110089;28;20028;-64
2022/02/07 09:41:54;;;;;;;8.23;1.50;;;8.70;50.80;;;;;;5092858;28;20084;-65
2022/02/07 09:44:22;;;;;;;5.18;1.20;;;8.60;50.00;;;;;;5136294;27;20031;-62
2022/02/07 09:46:48;;;;;;;4.80;1.35;;;8.70;49.80;;;;;;5107913;28;20036;-63
2022/02/07 09:49:18;;;;;;;3.83;1.27;;;8.60;49.60;;;;;;5108196;28;20101;-65
2022/02/07 09:51:45;;;;;;;3.55;1.23;;;8.60;49.00;;;;;;5101365;28;20036;-63
2022/02/07 09:54:18;;;;;;;4.70;1.05;;;8.70;48.90;;;;;;5112155;28;20481;-63
2022/02/07 09:56:45;;;;;;;5.47;1.95;;;8.60;48.90;;;;;;5104573;28;20034;-64
2022/02/07 09:59:13;;;;;;;7.95;1.10;;;8.70;49.10;;;;;;5100118;28;20039;-63
2022/02/07 10:01:45;;;;;;;3.40;1.20;;;9.00;48.30;;;;;;5100515;28;20055;-65
2022/02/07 10:04:21;;;;;;;9.48;1.60;;;9.10;48.10;;;;;;5105176;28;20032;-63
2022/02/07 10:06:56;;;;;;;3.42;1.40;;;9.30;48.40;;;;;;5094822;28;20441;-64
2022/02/07 10:14:52;;;;;;;6.25;1.10;;;9.20;47.90;;;;;;5099405;28;20045;-63
2022/02/07 10:37:51;;;;;;;3.47;1.63;;;9.70;48.50;;;;;;5094478;28;19954;-61
2022/02/07 10:46:10;;;;;;;5.10;1.40;;;9.90;49.70;;;;;;5105864;28;20030;-61
2022/02/07 10:48:48;;;;;;;5.50;1.60;;;9.90;49.50;;;;;;5111135;27;20038;-60
2022/02/07 10:51:27;;;;;;;4.07;1.17;;;10.20;49.70;;;;;;5113719;28;20028;-62
2022/02/07 10:54:05;;;;;;;4.20;1.40;;;10.30;48.80;;;;;;5112105;28;20042;-62
2022/02/07 10:56:42;;;;;;;3.33;1.20;;;10.10;49.30;;;;;;5113348;28;20115;-62
2022/02/07 10:59:16;;;;;;;3.00;1.20;;;9.90;50.20;;;;;;5113973;28;20016;-63
2022/02/07 11:04:19;;;;;;;4.90;1.40;;;9.80;49.50;;;;;;5114057;28;20027;-62
2022/02/07 11:06:48;;;;;;;3.13;1.17;;;9.80;49.60;;;;;;5111703;28;20371;-63
2022/02/07 11:27:52;;;;;;;3.78;1.55;;;9.90;48.90;;;;;;5103151;28;20020;-63
2022/02/07 11:30:41;;;;;;;6.75;1.70;;;10.00;48.50;;;;;;5107050;28;20039;-63
2022/02/07 11:33:31;;;;;;;3.45;1.60;;;10.20;47.80;;;;;;5104311;27;20116;-62
2022/02/07 11:35:58;;;;;;;7.22;1.60;;;10.30;47.30;;;;;;5109470;28;20579;-63
2022/02/07 11:38:24;;;;;;;10.27;2.25;;;10.40;47.40;;;;;;5099117;28;20028;-63
2022/02/07 11:41:03;;;;;;;3.28;1.67;;;10.50;46.60;;;;;;5104390;28;20074;-63
2022/02/07 11:43:31;;;;;;;3.13;1.58;;;10.60;46.40;;;;;;5098887;28;20023;-63
2022/02/07 11:46:15;;;;;;;4.15;1.45;;;10.50;46.00;;;;;;5114584;27;20031;-62
2022/02/07 11:48:50;;;;;;;7.63;1.60;;;10.40;46.60;;;;;;5112300;28;20019;-61
2022/02/07 11:51:29;;;;;;;8.95;1.50;;;10.40;46.50;;;;;;5102552;28;20066;-62
2022/02/07 11:54:02;;;;;;;3.92;2.15;;;10.30;46.30;;;;;;5104252;28;20093;-61
2022/02/07 11:56:45;;;;;;;6.70;3.00;;;10.10;46.70;;;;;;5101496;28;20024;-63
2022/02/07 11:59:23;;;;;;;10.63;3.53;;;10.10;47.10;;;;;;5101297;28;20024;-62
2022/02/07 12:02:04;;;;;;;3.83;1.75;;;10.40;46.70;;;;;;5103177;28;20027;-62
2022/02/07 12:04:47;;;;;;;3.05;1.58;;;10.60;45.50;;;;;;5105272;28;20127;-63
2022/02/07 12:07:24;;;;;;;4.07;1.50;;;10.70;45.50;;;;;;5122694;27;20027;-64
2022/02/07 12:10:38;;;;;;;5.78;1.40;;;10.80;45.00;;;;;;5099206;28;20063;-62
2022/02/07 12:13:34;;;;;;;3.60;1.50;;;10.80;45.20;;;;;;5102101;28;20118;-64
2022/02/07 12:16:26;;;;;;;4.90;1.20;;;10.80;44.90;;;;;;5100862;28;20036;-63
2022/02/07 12:18:58;;;;;;;4.53;1.42;;;10.90;44.70;;;;;;5111816;28;20031;-63
2022/02/07 12:21:28;;;;;;;3.50;1.58;;;10.90;44.50;;;;;;5110459;28;20058;-62
2022/02/07 12:23:57;;;;;;;4.28;1.92;;;10.70;44.80;;;;;;5107261;28;20042;-63
2022/02/07 12:26:24;;;;;;;4.53;1.48;;;10.70;45.20;;;;;;5109881;28;20050;-64
2022/02/07 12:28:58;;;;;;;10.18;1.60;;;10.80;44.70;;;;;;5110214;28;20042;-63
2022/02/07 12:31:26;;;;;;;8.35;1.65;;;10.70;44.70;;;;;;5110076;28;20036;-64
2022/02/07 12:33:59;;;;;;;6.07;2.20;;;10.60;45.10;;;;;;5101946;28;20489;-61
2022/02/07 12:36:27;;;;;;;4.40;1.40;;;10.70;45.30;;;;;;5097506;28;20097;-63
2022/02/07 12:38:55;;;;;;;4.95;1.30;;;10.60;45.40;;;;;;5103039;27;20034;-61
2022/02/07 12:41:23;;;;;;;9.55;1.63;;;10.30;51.70;;;;;;5115174;27;20035;-62
2022/02/07 12:43:51;;;;;;;7.07;1.33;;;9.70;57.00;;;;;;5110219;28;20027;-64
2022/02/07 12:46:21;;;;;;;4.38;1.35;;;9.30;59.00;;;;;;5110619;28;20437;-63
2022/02/07 12:49:12;;;;;;;2.17;0.90;;;9.10;59.10;;;;;;5102414;28;20087;-62
2022/02/07 12:51:46;;;;;;;2.85;1.23;;;8.90;59.40;;;;;;5096914;28;20061;-63
2022/02/07 12:54:15;;;;;;;6.32;1.80;;;8.90;61.60;;;;;;5106415;27;20114;-63
2022/02/07 12:56:41;;;;;;;3.90;1.50;;;9.00;62.00;;;;;;5111912;28;20023;-63
2022/02/07 12:59:07;;;;;;;6.07;1.40;;;9.00;61.10;;;;;;5111103;28;20088;-65
2022/02/07 13:01:38;;;;;;;3.42;1.23;;;9.10;60.80;;;;;;5108002;28;20035;-67
2022/02/07 13:04:11;;;;;;;1.85;1.15;;;9.30;58.70;;;;;;5103670;27;20136;-64
2022/02/07 13:06:43;;;;;;;4.22;1.60;;;9.30;57.40;;;;;;5099145;28;20096;-64
2022/02/07 13:09:29;;;;;;;2.63;1.40;;;9.30;57.10;;;;;;5109727;28;20080;-63
2022/02/07 13:12:12;;;;;;;6.43;1.65;;;9.40;56.70;;;;;;5111125;28;20055;-63
2022/02/07 13:14:45;;;;;;;4.35;2.08;;;9.40;56.60;;;;;;5112016;28;20072;-64
2022/02/07 13:17:13;;;;;;;5.63;1.65;;;9.40;54.90;;;;;;5098575;28;20027;-65
2022/02/07 13:19:43;;;;;;;6.95;1.58;;;9.20;54.00;;;;;;5111354;28;20381;-64
2022/02/07 13:22:10;;;;;;;5.55;1.88;;;9.10;54.00;;;;;;5111031;28;20054;-64
2022/02/07 13:24:38;;;;;;;8.77;2.10;;;9.10;53.90;;;;;;5111088;28;20031;-64
2022/02/07 13:27:14;;;;;;;5.82;1.90;;;9.00;54.00;;;;;;5111092;28;20027;-64
2022/02/07 13:29:46;;;;;;;6.97;2.22;;;8.90;55.10;;;;;;5110128;28;20390;-64
2022/02/07 13:32:23;;;;;;;8.68;1.88;;;8.90;55.10;;;;;;5111106;28;20564;-63
2022/02/07 13:34:49;;;;;;;9.13;2.03;;;8.90;55.20;;;;;;5099988;28;20028;-62
2022/02/07 13:37:28;;;;;;;8.35;2.38;;;9.00;55.20;;;;;;5109937;28;20023;-62
2022/02/07 13:40:02;;;;;;;7.10;1.55;;;9.10;54.40;;;;;;5109329;28;20031;-65
2022/02/07 13:42:31;;;;;;;;;;;9.20;53.50;;;;;;5110485;28;20024;-63
2022/02/07 13:45:00;;;;;;;7.03;2.00;;;9.20;52.90;;;;;;5110708;28;20006;-63
2022/02/07 13:47:27;;;;;;;9.40;2.13;;;9.30;52.60;;;;;;5109888;28;20480;-63
2022/02/07 13:49:59;;;;;;;4.43;1.38;;;9.30;51.90;;;;;;5109217;28;20066;-63
2022/02/07 13:52:45;;;;;;;2.95;1.50;;;9.20;50.90;;;;;;5109500;28;20059;-63
2022/02/07 13:55:51;;;;;;;4.00;1.75;;;9.30;51.30;;;;;;5106398;28;20122;-63
2022/02/07 13:58:38;;;;;;;3.55;1.77;;;9.40;50.00;;;;;;5048334;28;20067;-68
2022/02/07 14:01:07;;;;;;;8.20;2.33;;;9.30;50.20;;;;;;5030989;28;20044;-64
2022/02/07 14:03:44;;;;;;;8.52;2.15;;;9.40;50.40;;;;;;5048541;28;20036;-63
2022/02/07 14:06:10;;;;;;;8.95;2.30;;;9.50;49.70;;;;;;5030515;28;20847;-64
2022/02/07 14:08:48;;;;;;;11.63;2.47;;;9.50;49.20;;;;;;5048084;28;20029;-63
2022/02/07 14:11:18;;;;;;;4.40;1.60;;;9.50;48.80;;;;;;5047452;28;20039;-63
2022/02/07 14:13:45;;;;;;;10.05;2.65;;;9.50;48.50;;;;;;5048330;28;20052;-63
2022/02/07 14:16:12;;;;;;;6.00;1.60;;;9.50;49.00;;;;;;5047523;28;20163;-64
2022/02/07 14:18:44;;;;;;;5.35;1.55;;;9.50;48.90;;;;;;5026973;28;20035;-63
2022/02/07 14:21:10;;;;;;;6.65;1.45;;;9.50;48.60;;;;;;5046974;28;20431;-64
2022/02/07 14:23:41;;;;;;;6.43;1.70;;;9.50;48.40;;;;;;5028607;28;20124;-64
2022/02/07 14:26:14;;;;;;;5.35;1.90;;;9.30;48.60;;;;;;5047347;28;20315;-63
2022/02/07 14:28:40;;;;;;;8.87;1.60;;;9.30;48.40;;;;;;5070656;28;20036;-63
2022/02/07 14:31:05;;;;;;;3.90;1.30;;;9.20;48.50;;;;;;5111203;28;20032;-64
2022/02/07 14:33:31;;;;;;;5.03;1.50;;;9.00;48.60;;;;;;5114375;28;20030;-64
2022/02/07 14:35:58;;;;;;;4.68;1.58;;;9.00;49.10;;;;;;5113663;28;20023;-64
2022/02/07 14:38:23;;;;;;;4.82;1.50;;;8.90;49.40;;;;;;5113279;28;20038;-63
2022/02/07 14:40:49;;;;;;;5.18;1.90;;;8.80;49.80;;;;;;5112864;28;20506;-63
2022/02/07 14:43:22;;;;;;;5.45;1.85;;;8.90;49.80;;;;;;5112206;28;20039;-64
2022/02/07 14:45:56;;;;;;;3.25;1.42;;;9.00;50.00;;;;;;5114637;28;20023;-63
2022/02/07 14:48:23;;;;;;;7.63;1.70;;;9.00;49.90;;;;;;5113889;28;20030;-63
2022/02/07 14:50:49;;;;;;;7.10;1.85;;;9.00;49.90;;;;;;5113979;28;20488;-63
2022/02/07 14:53:15;;;;;;;4.75;1.70;;;9.00;49.90;;;;;;5110185;28;20031;-63
2022/02/07 14:55:42;;;;;;;10.25;1.50;;;9.00;50.10;;;;;;5114523;28;20110;-64
2022/02/07 14:58:08;;;;;;;4.85;1.77;;;9.10;50.00;;;;;;5112665;28;20028;-63
2022/02/07 15:00:35;;;;;;;12.18;2.30;;;9.00;49.90;;;;;;5113932;28;20024;-63
2022/02/07 15:03:04;;;;;;;5.05;1.70;;;9.10;50.20;;;;;;5111654;28;20019;-63
2022/02/07 15:05:30;;;;;;;4.60;1.70;;;9.20;50.20;;;;;;5114213;28;20023;-65
2022/02/07 15:07:57;;;;;;;8.45;2.00;;;9.10;50.10;;;;;;5113271;28;20034;-64
2022/02/07 15:10:23;;;;;;;8.82;2.35;;;9.20;50.20;;;;;;5113710;28;20016;-64
2022/02/07 15:12:52;;;;;;;8.70;1.95;;;9.10;50.30;;;;;;5112524;28;20042;-64
2022/02/07 15:15:18;;;;;;;14.20;2.20;;;9.10;50.50;;;;;;5112118;28;20139;-63
2022/02/07 15:17:44;;;;;;;6.72;1.70;;;9.10;50.30;;;;;;5113426;28;20098;-63
2022/02/07 15:20:13;;;;;;;7.45;1.40;;;9.00;50.20;;;;;;5111867;28;20501;-63
2022/02/07 15:22:46;;;;;;;7.18;1.90;;;8.90;50.20;;;;;;5112117;28;20169;-63
2022/02/07 15:25:17;;;;;;;8.77;2.05;;;8.80;50.50;;;;;;5113198;28;20102;-64
2022/02/07 15:27:44;;;;;;;6.55;2.45;;;8.70;50.80;;;;;;5112349;28;20110;-63
2022/02/07 15:30:11;;;;;;;6.30;1.75;;;8.70;51.00;;;;;;5112966;28;20024;-65
2022/02/07 15:32:41;;;;;;;11.02;1.70;;;8.60;51.00;;;;;;5113433;27;20036;-63
2022/02/07 15:35:08;;;;;;;8.15;2.15;;;8.60;50.80;;;;;;5095004;28;20389;-63
2022/02/07 15:37:36;;;;;;;5.28;1.73;;;8.50;51.10;;;;;;5113146;28;20023;-63
2022/02/07 15:40:03;;;;;;;6.07;2.00;;;8.50;51.20;;;;;;5113333;28;20034;-63
2022/02/07 15:42:29;;;;;;;9.18;2.25;;;8.50;51.20;;;;;;5112975;27;20034;-64
2022/02/07 15:44:59;;;;;;;8.70;2.35;;;8.50;51.20;;;;;;5112121;28;20027;-65
2022/02/07 15:47:30;;;;;;;4.65;2.05;;;8.50;51.40;;;;;;5111998;28;20031;-63
2022/02/07 15:49:57;;;;;;;4.63;1.80;;;8.50;51.40;;;;;;5111420;28;20051;-64
2022/02/07 15:52:22;;;;;;;8.60;1.88;;;8.40;51.40;;;;;;5094788;28;20108;-64